sensor_id;sensor_type;location;lat;lon;timestamp;pressure;altitude;pressure_sealevel;temperature;humidity
74627;BME280;63132;52.268;5.192;2023-04-25T00:00:38;101027.94;;;5.12;79.25
74627;BME280;63132;52.268;5.192;2023-04-25T00:03:03;101023.22;;;5.19;80.27
74627;BME280;63132;52.268;5.192;2023-04-25T00:05:30;101028.91;;;5.11;81.32
74627;BME280;63132;52.268;5.192;2023-04-25T00:07:57;101023.06;;;5.04;82.09
74627;BME280;63132;52.268;5.192;2023-04-25T00:10:23;101030.84;;;5.07;82.21
74627;BME280;63132;52.268;5.192;2023-04-25T00:12:48;101031.22;;;5.17;82.63
74627;BME280;63132;52.268;5.192;2023-04-25T00:15:14;101029.19;;;5.23;82.59
74627;BME280;63132;52.268;5.192;2023-04-25T00:17:40;101030.72;;;5.27;82.16
74627;BME280;63132;52.268;5.192;2023-04-25T00:20:06;101029.31;;;5.19;83.17
74627;BME280;63132;52.268;5.192;2023-04-25T00:22:34;101026.19;;;5.13;84.19
74627;BME280;63132;52.268;5.192;2023-04-25T00:24:59;101037.94;;;5.23;82.91
74627;BME280;63132;52.268;5.192;2023-04-25T00:27:26;101029.50;;;5.16;83.64
74627;BME280;63132;52.268;5.192;2023-04-25T00:29:51;101038.28;;;5.17;83.51
74627;BME280;63132;52.268;5.192;2023-04-25T00:32:16;101032.34;;;4.95;84.39
74627;BME280;63132;52.268;5.192;2023-04-25T00:34:42;101045.34;;;4.98;84.12
74627;BME280;63132;52.268;5.192;2023-04-25T00:37:07;101038.19;;;4.84;84.78
74627;BME280;63132;52.268;5.192;2023-04-25T00:39:32;101044.22;;;4.87;84.78
74627;BME280;63132;52.268;5.192;2023-04-25T00:41:58;101039.72;;;4.89;84.19
74627;BME280;63132;52.268;5.192;2023-04-25T00:44:24;101046.41;;;4.78;85.39
74627;BME280;63132;52.268;5.192;2023-04-25T00:46:50;101043.06;;;4.74;85.92
74627;BME280;63132;52.268;5.192;2023-04-25T00:49:15;101044.84;;;4.74;84.79
74627;BME280;63132;52.268;5.192;2023-04-25T00:51:42;101045.44;;;4.79;84.86
74627;BME280;63132;52.268;5.192;2023-04-25T00:54:09;101045.88;;;4.71;84.82
74627;BME280;63132;52.268;5.192;2023-04-25T00:56:35;101041.59;;;4.69;85.55
74627;BME280;63132;52.268;5.192;2023-04-25T00:59:00;101041.81;;;4.64;84.94
74627;BME280;63132;52.268;5.192;2023-04-25T01:01:26;101042.84;;;4.61;84.04
74627;BME280;63132;52.268;5.192;2023-04-25T01:03:53;101049.50;;;4.51;83.70
74627;BME280;63132;52.268;5.192;2023-04-25T01:06:19;101041.00;;;4.64;83.47
74627;BME280;63132;52.268;5.192;2023-04-25T01:08:44;101053.06;;;4.50;82.09
74627;BME280;63132;52.268;5.192;2023-04-25T01:11:10;101043.06;;;4.57;81.66
74627;BME280;63132;52.268;5.192;2023-04-25T01:13:35;101045.00;;;4.53;81.34
74627;BME280;63132;52.268;5.192;2023-04-25T01:16:02;101056.19;;;4.41;82.27
74627;BME280;63132;52.268;5.192;2023-04-25T01:18:27;101053.16;;;4.48;81.53
74627;BME280;63132;52.268;5.192;2023-04-25T01:20:54;101056.38;;;4.36;82.76
74627;BME280;63132;52.268;5.192;2023-04-25T01:23:21;101051.69;;;4.43;82.32
74627;BME280;63132;52.268;5.192;2023-04-25T01:25:48;101059.81;;;4.38;82.92
74627;BME280;63132;52.268;5.192;2023-04-25T01:28:14;101061.03;;;4.31;83.35
74627;BME280;63132;52.268;5.192;2023-04-25T01:30:40;101064.13;;;4.21;84.29
74627;BME280;63132;52.268;5.192;2023-04-25T01:33:05;101064.41;;;4.15;83.99
74627;BME280;63132;52.268;5.192;2023-04-25T01:35:32;101070.75;;;4.11;84.39
74627;BME280;63132;52.268;5.192;2023-04-25T01:37:59;101069.34;;;4.03;84.17
74627;BME280;63132;52.268;5.192;2023-04-25T01:40:24;101072.44;;;3.94;84.81
74627;BME280;63132;52.268;5.192;2023-04-25T01:42:50;101067.88;;;3.59;nan
74627;BME280;63132;52.268;5.192;2023-04-25T01:45:17;101073.56;;;3.50;87.49
74627;BME280;63132;52.268;5.192;2023-04-25T01:47:43;101071.94;;;3.47;87.29
74627;BME280;63132;52.268;5.192;2023-04-25T01:50:12;101073.59;;;3.29;87.78
74627;BME280;63132;52.268;5.192;2023-04-25T01:52:37;101077.97;;;3.30;88.67
74627;BME280;63132;52.268;5.192;2023-04-25T01:55:05;101070.88;;;3.32;87.71
74627;BME280;63132;52.268;5.192;2023-04-25T01:57:30;101080.06;;;3.22;88.00
74627;BME280;63132;52.268;5.192;2023-04-25T02:00:01;101079.81;;;3.28;88.02
74627;BME280;63132;52.268;5.192;2023-04-25T02:02:27;101089.53;;;3.26;88.22
74627;BME280;63132;52.268;5.192;2023-04-25T02:04:53;101087.31;;;3.16;88.56
74627;BME280;63132;52.268;5.192;2023-04-25T02:07:19;101093.03;;;3.26;89.00
74627;BME280;63132;52.268;5.192;2023-04-25T02:09:44;101085.78;;;3.31;87.70
74627;BME280;63132;52.268;5.192;2023-04-25T02:12:10;101077.28;;;3.25;88.13
74627;BME280;63132;52.268;5.192;2023-04-25T02:14:36;101091.34;;;3.45;88.26
74627;BME280;63132;52.268;5.192;2023-04-25T02:17:01;101088.72;;;3.45;88.25
74627;BME280;63132;52.268;5.192;2023-04-25T02:19:27;101090.84;;;3.55;87.91
74627;BME280;63132;52.268;5.192;2023-04-25T02:21:52;101094.34;;;3.75;87.34
74627;BME280;63132;52.268;5.192;2023-04-25T02:24:17;101087.06;;;3.61;87.32
74627;BME280;63132;52.268;5.192;2023-04-25T02:26:43;101089.72;;;3.81;87.33
74627;BME280;63132;52.268;5.192;2023-04-25T02:29:09;101092.84;;;3.70;87.68
74627;BME280;63132;52.268;5.192;2023-04-25T02:31:35;101083.38;;;3.65;87.75
74627;BME280;63132;52.268;5.192;2023-04-25T02:34:00;101093.69;;;3.51;87.88
74627;BME280;63132;52.268;5.192;2023-04-25T02:36:25;101094.63;;;3.69;87.82
74627;BME280;63132;52.268;5.192;2023-04-25T02:38:51;101094.41;;;3.54;87.19
74627;BME280;63132;52.268;5.192;2023-04-25T02:41:17;101103.28;;;3.52;86.94
74627;BME280;63132;52.268;5.192;2023-04-25T02:43:42;101099.38;;;3.41;87.57
74627;BME280;63132;52.268;5.192;2023-04-25T02:46:08;101094.91;;;3.43;86.67
74627;BME280;63132;52.268;5.192;2023-04-25T02:48:33;101097.91;;;3.15;87.38
74627;BME280;63132;52.268;5.192;2023-04-25T02:50:59;101099.94;;;3.08;88.19
74627;BME280;63132;52.268;5.192;2023-04-25T02:53:24;101099.91;;;3.29;87.80
74627;BME280;63132;52.268;5.192;2023-04-25T02:55:49;101106.59;;;3.17;88.14
74627;BME280;63132;52.268;5.192;2023-04-25T02:58:17;101102.94;;;3.19;88.35
74627;BME280;63132;52.268;5.192;2023-04-25T03:00:42;101097.91;;;3.55;86.67
74627;BME280;63132;52.268;5.192;2023-04-25T03:03:08;101106.19;;;3.46;85.74
74627;BME280;63132;52.268;5.192;2023-04-25T03:05:33;101103.53;;;3.66;84.78
74627;BME280;63132;52.268;5.192;2023-04-25T03:07:58;101101.03;;;3.63;86.11
74627;BME280;63132;52.268;5.192;2023-04-25T03:10:24;101105.75;;;3.76;83.93
74627;BME280;63132;52.268;5.192;2023-04-25T03:12:49;101112.78;;;3.95;82.94
74627;BME280;63132;52.268;5.192;2023-04-25T03:15:14;101116.81;;;4.02;81.50
74627;BME280;63132;52.268;5.192;2023-04-25T03:17:41;101116.59;;;4.07;81.30
74627;BME280;63132;52.268;5.192;2023-04-25T03:20:07;101128.69;;;4.11;81.77
74627;BME280;63132;52.268;5.192;2023-04-25T03:22:33;101120.78;;;4.11;80.47
74627;BME280;63132;52.268;5.192;2023-04-25T03:24:58;101121.09;;;4.05;81.04
74627;BME280;63132;52.268;5.192;2023-04-25T03:27:24;101124.00;;;4.18;80.56
74627;BME280;63132;52.268;5.192;2023-04-25T03:29:49;101127.84;;;4.10;80.75
74627;BME280;63132;52.268;5.192;2023-04-25T03:32:14;101128.06;;;4.06;80.67
74627;BME280;63132;52.268;5.192;2023-04-25T03:34:40;101124.78;;;4.00;80.24
74627;BME280;63132;52.268;5.192;2023-04-25T03:37:05;101123.06;;;3.99;81.02
74627;BME280;63132;52.268;5.192;2023-04-25T03:39:31;101137.00;;;3.82;81.56
74627;BME280;63132;52.268;5.192;2023-04-25T03:41:56;101128.34;;;3.99;79.88
74627;BME280;63132;52.268;5.192;2023-04-25T03:44:21;101138.03;;;3.99;79.64
74627;BME280;63132;52.268;5.192;2023-04-25T03:46:47;101138.25;;;3.94;79.63
74627;BME280;63132;52.268;5.192;2023-04-25T03:49:13;101135.16;;;4.03;78.92
74627;BME280;63132;52.268;5.192;2023-04-25T03:51:38;101140.34;;;4.24;77.69
74627;BME280;63132;52.268;5.192;2023-04-25T03:54:04;101142.97;;;4.24;78.43
74627;BME280;63132;52.268;5.192;2023-04-25T03:56:29;101140.63;;;4.18;78.73
74627;BME280;63132;52.268;5.192;2023-04-25T03:58:55;101139.53;;;4.05;79.28
74627;BME280;63132;52.268;5.192;2023-04-25T04:01:20;101142.28;;;4.01;79.33
74627;BME280;63132;52.268;5.192;2023-04-25T04:03:45;101135.44;;;3.97;78.28
74627;BME280;63132;52.268;5.192;2023-04-25T04:06:11;101146.13;;;3.94;78.88
74627;BME280;63132;52.268;5.192;2023-04-25T04:08:36;101149.91;;;3.88;78.75
74627;BME280;63132;52.268;5.192;2023-04-25T04:11:01;101149.00;;;3.89;78.87
74627;BME280;63132;52.268;5.192;2023-04-25T04:13:27;101152.25;;;3.95;78.39
74627;BME280;63132;52.268;5.192;2023-04-25T04:15:53;101155.69;;;3.97;78.32
74627;BME280;63132;52.268;5.192;2023-04-25T04:18:18;101149.91;;;3.88;79.66
74627;BME280;63132;52.268;5.192;2023-04-25T04:20:44;101157.31;;;3.99;79.13
74627;BME280;63132;52.268;5.192;2023-04-25T04:23:09;101153.53;;;4.05;79.37
74627;BME280;63132;52.268;5.192;2023-04-25T04:25:36;101158.31;;;3.97;80.09
74627;BME280;63132;52.268;5.192;2023-04-25T04:28:01;101156.75;;;3.93;81.23
74627;BME280;63132;52.268;5.192;2023-04-25T04:30:26;101158.38;;;3.95;81.52
74627;BME280;63132;52.268;5.192;2023-04-25T04:32:55;101158.31;;;3.97;83.23
74627;BME280;63132;52.268;5.192;2023-04-25T04:35:21;101161.66;;;4.00;82.93
74627;BME280;63132;52.268;5.192;2023-04-25T04:37:46;101172.13;;;4.02;81.28
74627;BME280;63132;52.268;5.192;2023-04-25T04:40:13;101176.94;;;4.11;80.90
74627;BME280;63132;52.268;5.192;2023-04-25T04:42:44;101177.88;;;4.10;80.24
74627;BME280;63132;52.268;5.192;2023-04-25T04:45:10;101173.69;;;4.06;79.88
74627;BME280;63132;52.268;5.192;2023-04-25T04:47:36;101178.38;;;4.19;78.28
74627;BME280;63132;52.268;5.192;2023-04-25T04:50:06;101185.41;;;4.18;78.02
74627;BME280;63132;52.268;5.192;2023-04-25T04:52:34;101179.22;;;4.19;77.68
74627;BME280;63132;52.268;5.192;2023-04-25T04:54:59;101185.47;;;4.17;78.94
74627;BME280;63132;52.268;5.192;2023-04-25T04:57:25;101187.47;;;4.11;79.92
74627;BME280;63132;52.268;5.192;2023-04-25T04:59:50;101188.69;;;4.43;77.50
74627;BME280;63132;52.268;5.192;2023-04-25T05:02:16;101191.19;;;4.26;78.56
74627;BME280;63132;52.268;5.192;2023-04-25T05:04:42;101189.41;;;4.27;77.40
74627;BME280;63132;52.268;5.192;2023-04-25T05:07:07;101200.06;;;4.24;78.06
74627;BME280;63132;52.268;5.192;2023-04-25T05:09:32;101206.47;;;4.18;77.09
74627;BME280;63132;52.268;5.192;2023-04-25T05:11:58;101206.78;;;4.31;76.95
74627;BME280;63132;52.268;5.192;2023-04-25T05:14:23;101199.88;;;4.29;76.75
74627;BME280;63132;52.268;5.192;2023-04-25T05:16:48;101206.63;;;4.34;75.36
74627;BME280;63132;52.268;5.192;2023-04-25T05:19:14;101212.53;;;4.40;76.05
74627;BME280;63132;52.268;5.192;2023-04-25T05:21:39;101218.72;;;4.38;75.80
74627;BME280;63132;52.268;5.192;2023-04-25T05:24:05;101217.56;;;4.64;73.73
74627;BME280;63132;52.268;5.192;2023-04-25T05:26:30;101215.09;;;4.78;74.13
74627;BME280;63132;52.268;5.192;2023-04-25T05:28:59;101211.97;;;4.70;73.74
74627;BME280;63132;52.268;5.192;2023-04-25T05:31:25;101222.16;;;4.78;74.48
74627;BME280;63132;52.268;5.192;2023-04-25T05:33:50;101230.75;;;4.81;74.54
74627;BME280;63132;52.268;5.192;2023-04-25T05:36:15;101226.97;;;4.69;75.75
74627;BME280;63132;52.268;5.192;2023-04-25T05:38:42;101225.31;;;4.67;74.47
74627;BME280;63132;52.268;5.192;2023-04-25T05:41:07;101233.31;;;4.65;74.28
74627;BME280;63132;52.268;5.192;2023-04-25T05:43:32;101234.94;;;4.68;75.53
74627;BME280;63132;52.268;5.192;2023-04-25T05:45:58;101245.34;;;4.71;76.37
74627;BME280;63132;52.268;5.192;2023-04-25T05:48:24;101243.16;;;4.79;76.12
74627;BME280;63132;52.268;5.192;2023-04-25T05:50:49;101246.59;;;4.81;77.77
74627;BME280;63132;52.268;5.192;2023-04-25T05:53:16;101250.16;;;4.80;76.14
74627;BME280;63132;52.268;5.192;2023-04-25T05:55:42;101254.56;;;5.17;75.45
74627;BME280;63132;52.268;5.192;2023-04-25T05:58:07;101256.03;;;5.23;75.91
74627;BME280;63132;52.268;5.192;2023-04-25T06:00:32;101262.53;;;4.97;76.10
74627;BME280;63132;52.268;5.192;2023-04-25T06:02:58;101262.91;;;4.90;74.56
74627;BME280;63132;52.268;5.192;2023-04-25T06:05:24;101256.56;;;4.94;74.98
74627;BME280;63132;52.268;5.192;2023-04-25T06:07:50;101265.78;;;4.66;74.85
74627;BME280;63132;52.268;5.192;2023-04-25T06:10:15;101266.94;;;4.60;75.76
74627;BME280;63132;52.268;5.192;2023-04-25T06:12:40;101274.34;;;4.52;73.76
74627;BME280;63132;52.268;5.192;2023-04-25T06:15:06;101280.66;;;4.67;73.18
74627;BME280;63132;52.268;5.192;2023-04-25T06:17:32;101282.16;;;4.53;74.41
74627;BME280;63132;52.268;5.192;2023-04-25T06:19:58;101288.81;;;4.43;74.48
74627;BME280;63132;52.268;5.192;2023-04-25T06:22:23;101281.72;;;4.62;73.64
74627;BME280;63132;52.268;5.192;2023-04-25T06:24:48;101282.69;;;4.61;75.58
74627;BME280;63132;52.268;5.192;2023-04-25T06:27:14;101296.22;;;4.91;74.83
74627;BME280;63132;52.268;5.192;2023-04-25T06:29:39;101281.03;;;5.15;73.04
74627;BME280;63132;52.268;5.192;2023-04-25T06:32:05;101279.69;;;5.24;73.79
74627;BME280;63132;52.268;5.192;2023-04-25T06:34:30;101273.34;;;5.64;72.56
74627;BME280;63132;52.268;5.192;2023-04-25T06:36:55;101289.16;;;5.82;72.23
74627;BME280;63132;52.268;5.192;2023-04-25T06:39:21;101280.69;;;6.10;71.41
74627;BME280;63132;52.268;5.192;2023-04-25T06:41:48;101290.03;;;6.34;70.45
74627;BME280;63132;52.268;5.192;2023-04-25T06:44:13;101296.81;;;6.38;70.80
74627;BME280;63132;52.268;5.192;2023-04-25T06:46:39;101299.41;;;6.39;70.25
74627;BME280;63132;52.268;5.192;2023-04-25T06:49:04;101301.13;;;6.57;69.71
74627;BME280;63132;52.268;5.192;2023-04-25T06:51:30;101301.63;;;6.80;68.41
74627;BME280;63132;52.268;5.192;2023-04-25T06:53:55;101304.50;;;6.91;69.12
74627;BME280;63132;52.268;5.192;2023-04-25T06:56:21;101312.78;;;7.17;68.71
74627;BME280;63132;52.268;5.192;2023-04-25T06:58:46;101310.16;;;7.01;67.35
74627;BME280;63132;52.268;5.192;2023-04-25T07:01:12;101309.78;;;7.24;67.72
74627;BME280;63132;52.268;5.192;2023-04-25T07:03:37;101304.34;;;6.78;68.52
74627;BME280;63132;52.268;5.192;2023-04-25T07:06:03;101306.56;;;7.02;66.51
74627;BME280;63132;52.268;5.192;2023-04-25T07:08:29;101315.97;;;7.08;66.67
74627;BME280;63132;52.268;5.192;2023-04-25T07:10:54;101313.88;;;7.13;66.06
74627;BME280;63132;52.268;5.192;2023-04-25T07:13:20;101317.19;;;7.33;66.21
74627;BME280;63132;52.268;5.192;2023-04-25T07:15:45;101313.19;;;7.26;65.65
74627;BME280;63132;52.268;5.192;2023-04-25T07:18:13;101319.66;;;7.36;65.06
74627;BME280;63132;52.268;5.192;2023-04-25T07:20:38;101331.94;;;7.37;64.01
74627;BME280;63132;52.268;5.192;2023-04-25T07:23:04;101334.75;;;6.87;64.49
74627;BME280;63132;52.268;5.192;2023-04-25T07:25:29;101329.94;;;6.94;65.43
74627;BME280;63132;52.268;5.192;2023-04-25T07:27:56;101333.53;;;7.09;65.04
74627;BME280;63132;52.268;5.192;2023-04-25T07:30:21;101335.81;;;6.99;66.20
74627;BME280;63132;52.268;5.192;2023-04-25T07:32:49;101337.47;;;7.18;65.01
74627;BME280;63132;52.268;5.192;2023-04-25T07:35:16;101340.88;;;7.04;62.65
74627;BME280;63132;52.268;5.192;2023-04-25T07:37:41;101335.69;;;7.02;63.49
74627;BME280;63132;52.268;5.192;2023-04-25T07:40:07;101338.13;;;7.05;64.92
74627;BME280;63132;52.268;5.192;2023-04-25T07:42:34;101339.50;;;7.13;63.15
74627;BME280;63132;52.268;5.192;2023-04-25T07:45:00;101355.03;;;7.19;62.72
74627;BME280;63132;52.268;5.192;2023-04-25T07:47:25;101373.88;;;6.80;62.03
74627;BME280;63132;52.268;5.192;2023-04-25T07:49:50;101400.78;;;5.85;63.58
74627;BME280;63132;52.268;5.192;2023-04-25T07:52:16;101384.53;;;5.20;70.54
74627;BME280;63132;52.268;5.192;2023-04-25T07:54:41;101388.47;;;4.92;71.08
74627;BME280;63132;52.268;5.192;2023-04-25T07:57:07;101379.69;;;4.72;69.15
74627;BME280;63132;52.268;5.192;2023-04-25T07:59:32;101382.94;;;4.58;71.13
74627;BME280;63132;52.268;5.192;2023-04-25T08:01:57;101384.09;;;4.72;71.77
74627;BME280;63132;52.268;5.192;2023-04-25T08:04:23;101378.97;;;4.69;72.56
74627;BME280;63132;52.268;5.192;2023-04-25T08:06:49;101382.41;;;4.90;74.10
74627;BME280;63132;52.268;5.192;2023-04-25T08:09:15;101386.31;;;4.81;73.28
74627;BME280;63132;52.268;5.192;2023-04-25T08:11:41;101384.34;;;4.87;72.84
74627;BME280;63132;52.268;5.192;2023-04-25T08:14:07;101390.78;;;4.79;73.38
74627;BME280;63132;52.268;5.192;2023-04-25T08:16:32;101395.78;;;4.85;71.81
74627;BME280;63132;52.268;5.192;2023-04-25T08:18:59;101398.78;;;4.97;73.83
74627;BME280;63132;52.268;5.192;2023-04-25T08:21:25;101398.63;;;5.19;68.51
74627;BME280;63132;52.268;5.192;2023-04-25T08:23:52;101406.06;;;5.30;69.52
74627;BME280;63132;52.268;5.192;2023-04-25T08:26:17;101407.06;;;5.65;69.68
74627;BME280;63132;52.268;5.192;2023-04-25T08:28:42;101402.16;;;5.92;67.63
74627;BME280;63132;52.268;5.192;2023-04-25T08:31:08;101409.09;;;6.31;66.92
74627;BME280;63132;52.268;5.192;2023-04-25T08:33:33;101403.19;;;6.59;65.36
74627;BME280;63132;52.268;5.192;2023-04-25T08:35:58;101407.50;;;6.78;66.89
74627;BME280;63132;52.268;5.192;2023-04-25T08:38:24;101407.25;;;6.83;61.78
74627;BME280;63132;52.268;5.192;2023-04-25T08:40:50;101410.13;;;6.78;62.13
74627;BME280;63132;52.268;5.192;2023-04-25T08:43:19;101418.66;;;6.67;62.75
74627;BME280;63132;52.268;5.192;2023-04-25T08:45:45;101420.38;;;6.68;63.57
74627;BME280;63132;52.268;5.192;2023-04-25T08:48:14;101427.03;;;6.75;61.25
74627;BME280;63132;52.268;5.192;2023-04-25T08:50:51;101422.44;;;6.95;62.28
74627;BME280;63132;52.268;5.192;2023-04-25T08:53:22;101426.31;;;7.38;60.28
74627;BME280;63132;52.268;5.192;2023-04-25T08:55:49;101426.28;;;8.01;58.38
74627;BME280;63132;52.268;5.192;2023-04-25T08:58:15;101437.97;;;8.28;57.21
74627;BME280;63132;52.268;5.192;2023-04-25T09:00:41;101446.25;;;8.07;54.86
74627;BME280;63132;52.268;5.192;2023-04-25T09:03:06;101440.59;;;7.82;55.66
74627;BME280;63132;52.268;5.192;2023-04-25T09:05:33;101454.13;;;7.92;57.05
74627;BME280;63132;52.268;5.192;2023-04-25T09:07:58;101468.72;;;7.53;60.05
74627;BME280;63132;52.268;5.192;2023-04-25T09:10:26;101477.47;;;7.39;63.11
74627;BME280;63132;52.268;5.192;2023-04-25T09:13:10;101502.41;;;6.67;67.46
74627;BME280;63132;52.268;5.192;2023-04-25T09:15:48;101505.31;;;6.62;68.99
74627;BME280;63132;52.268;5.192;2023-04-25T09:18:31;101499.25;;;6.42;68.29
74627;BME280;63132;52.268;5.192;2023-04-25T09:21:05;101496.09;;;6.87;64.31
74627;BME280;63132;52.268;5.192;2023-04-25T09:23:31;101505.78;;;7.04;61.98
74627;BME280;63132;52.268;5.192;2023-04-25T09:26:03;101502.22;;;7.21;59.29
74627;BME280;63132;52.268;5.192;2023-04-25T09:28:28;101497.94;;;7.19;57.17
74627;BME280;63132;52.268;5.192;2023-04-25T09:30:55;101503.00;;;7.24;56.32
74627;BME280;63132;52.268;5.192;2023-04-25T09:33:31;101501.69;;;7.47;55.83
74627;BME280;63132;52.268;5.192;2023-04-25T09:36:05;101500.84;;;7.63;54.61
74627;BME280;63132;52.268;5.192;2023-04-25T09:38:36;101499.31;;;7.58;54.36
74627;BME280;63132;52.268;5.192;2023-04-25T09:41:05;101500.16;;;7.27;54.62
74627;BME280;63132;52.268;5.192;2023-04-25T09:43:30;101500.44;;;7.38;56.06
74627;BME280;63132;52.268;5.192;2023-04-25T09:45:56;101507.66;;;7.99;56.54
74627;BME280;63132;52.268;5.192;2023-04-25T09:48:26;101506.00;;;8.44;56.14
74627;BME280;63132;52.268;5.192;2023-04-25T09:51:08;101508.25;;;8.50;52.01
74627;BME280;63132;52.268;5.192;2023-04-25T09:53:38;101520.13;;;7.97;51.82
74627;BME280;63132;52.268;5.192;2023-04-25T09:56:05;101525.25;;;8.31;53.12
74627;BME280;63132;52.268;5.192;2023-04-25T09:58:32;101530.25;;;7.90;50.24
74627;BME280;63132;52.268;5.192;2023-04-25T10:01:00;101516.47;;;8.00;51.70
74627;BME280;63132;52.268;5.192;2023-04-25T10:03:26;101522.38;;;8.20;53.75
74627;BME280;63132;52.268;5.192;2023-04-25T10:05:52;101511.56;;;8.08;53.73
74627;BME280;63132;52.268;5.192;2023-04-25T10:08:19;101517.38;;;8.15;55.25
74627;BME280;63132;52.268;5.192;2023-04-25T10:10:46;101517.28;;;8.00;53.87
74627;BME280;63132;52.268;5.192;2023-04-25T10:13:13;101518.38;;;8.12;55.76
74627;BME280;63132;52.268;5.192;2023-04-25T10:15:40;101527.16;;;7.82;55.05
74627;BME280;63132;52.268;5.192;2023-04-25T10:18:06;101511.25;;;8.29;54.80
74627;BME280;63132;52.268;5.192;2023-04-25T10:20:32;101512.41;;;8.39;54.29
74627;BME280;63132;52.268;5.192;2023-04-25T10:23:03;101515.06;;;8.39;53.05
74627;BME280;63132;52.268;5.192;2023-04-25T10:25:33;101511.28;;;8.44;55.61
74627;BME280;63132;52.268;5.192;2023-04-25T10:27:59;101518.75;;;8.68;55.22
74627;BME280;63132;52.268;5.192;2023-04-25T10:30:25;101521.59;;;8.94;53.16
74627;BME280;63132;52.268;5.192;2023-04-25T10:32:54;101546.88;;;8.39;53.47
74627;BME280;63132;52.268;5.192;2023-04-25T10:35:38;101548.25;;;7.84;59.59
74627;BME280;63132;52.268;5.192;2023-04-25T10:38:05;101567.72;;;6.82;65.23
74627;BME280;63132;52.268;5.192;2023-04-25T10:40:32;101580.47;;;6.21;70.81
74627;BME280;63132;52.268;5.192;2023-04-25T10:45:59;101589.97;;;4.45;97.17
74627;BME280;63132;52.268;5.192;2023-04-25T10:48:29;101582.78;;;4.26;98.62
74627;BME280;63132;52.268;5.192;2023-04-25T10:51:11;101582.09;;;4.43;99.42
74627;BME280;63132;52.268;5.192;2023-04-25T10:53:37;101581.63;;;4.56;100.00
74627;BME280;63132;52.268;5.192;2023-04-25T10:56:28;101579.47;;;4.66;100.00
74627;BME280;63132;52.268;5.192;2023-04-25T10:59:07;101589.69;;;4.94;100.00
74627;BME280;63132;52.268;5.192;2023-04-25T11:01:43;101610.03;;;5.12;100.00
74627;BME280;63132;52.268;5.192;2023-04-25T11:04:30;101589.13;;;5.47;100.00
74627;BME280;63132;52.268;5.192;2023-04-25T11:09:36;101571.84;;;6.35;98.52
74627;BME280;63132;52.268;5.192;2023-04-25T11:12:03;101569.06;;;6.56;96.37
74627;BME280;63132;52.268;5.192;2023-04-25T11:14:30;101570.00;;;6.72;94.60
74627;BME280;63132;52.268;5.192;2023-04-25T11:16:58;101571.72;;;6.56;92.57
74627;BME280;63132;52.268;5.192;2023-04-25T11:19:25;101571.06;;;6.86;88.86
74627;BME280;63132;52.268;5.192;2023-04-25T11:21:55;101568.91;;;6.59;71.43
74627;BME280;63132;52.268;5.192;2023-04-25T11:24:34;101562.63;;;6.61;67.71
74627;BME280;63132;52.268;5.192;2023-04-25T11:27:01;101554.81;;;6.76;65.80
74627;BME280;63132;52.268;5.192;2023-04-25T11:29:30;101563.63;;;7.44;63.74
74627;BME280;63132;52.268;5.192;2023-04-25T11:31:56;101566.28;;;7.93;67.48
74627;BME280;63132;52.268;5.192;2023-04-25T11:34:23;101573.78;;;7.52;65.92
74627;BME280;63132;52.268;5.192;2023-04-25T11:36:50;101576.72;;;7.14;65.55
74627;BME280;63132;52.268;5.192;2023-04-25T11:39:15;101584.00;;;6.92;67.62
74627;BME280;63132;52.268;5.192;2023-04-25T11:41:41;101589.56;;;7.04;67.43
74627;BME280;63132;52.268;5.192;2023-04-25T11:44:07;101592.22;;;7.04;66.73
74627;BME280;63132;52.268;5.192;2023-04-25T11:46:36;101594.59;;;7.08;67.23
74627;BME280;63132;52.268;5.192;2023-04-25T11:49:01;101596.03;;;6.98;66.96
74627;BME280;63132;52.268;5.192;2023-04-25T11:51:27;101597.13;;;6.76;67.57
74627;BME280;63132;52.268;5.192;2023-04-25T11:53:52;101602.06;;;6.66;68.77
74627;BME280;63132;52.268;5.192;2023-04-25T11:56:18;101595.75;;;6.69;64.72
74627;BME280;63132;52.268;5.192;2023-04-25T11:59:03;101588.34;;;6.58;67.70
74627;BME280;63132;52.268;5.192;2023-04-25T12:01:40;101592.56;;;6.62;65.15
74627;BME280;63132;52.268;5.192;2023-04-25T12:06:37;101590.94;;;6.77;57.95
74627;BME280;63132;52.268;5.192;2023-04-25T12:09:07;101595.66;;;6.88;57.73
74627;BME280;63132;52.268;5.192;2023-04-25T12:11:43;101598.44;;;7.03;58.05
74627;BME280;63132;52.268;5.192;2023-04-25T12:14:10;101599.97;;;7.25;59.73
74627;BME280;63132;52.268;5.192;2023-04-25T12:16:46;101605.38;;;7.39;58.59
74627;BME280;63132;52.268;5.192;2023-04-25T12:19:15;101600.97;;;7.56;55.09
74627;BME280;63132;52.268;5.192;2023-04-25T12:21:41;101603.19;;;7.48;55.28
74627;BME280;63132;52.268;5.192;2023-04-25T12:24:17;101593.28;;;7.51;57.52
74627;BME280;63132;52.268;5.192;2023-04-25T12:29:22;101597.13;;;7.78;56.66
74627;BME280;63132;52.268;5.192;2023-04-25T12:31:49;101601.50;;;7.95;58.55
74627;BME280;63132;52.268;5.192;2023-04-25T12:34:15;101611.94;;;7.82;57.42
74627;BME280;63132;52.268;5.192;2023-04-25T12:36:41;101611.28;;;7.44;56.65
74627;BME280;63132;52.268;5.192;2023-04-25T12:39:06;101604.44;;;7.40;58.50
74627;BME280;63132;52.268;5.192;2023-04-25T12:41:32;101616.50;;;7.46;56.42
74627;BME280;63132;52.268;5.192;2023-04-25T12:43:57;101602.09;;;7.52;55.69
74627;BME280;63132;52.268;5.192;2023-04-25T12:46:23;101594.31;;;7.81;54.03
74627;BME280;63132;52.268;5.192;2023-04-25T12:48:48;101603.28;;;7.94;55.21
74627;BME280;63132;52.268;5.192;2023-04-25T12:51:14;101607.81;;;7.92;57.56
74627;BME280;63132;52.268;5.192;2023-04-25T12:53:40;101612.09;;;7.95;58.49
74627;BME280;63132;52.268;5.192;2023-04-25T12:56:09;101617.06;;;7.69;55.25
74627;BME280;63132;52.268;5.192;2023-04-25T12:58:35;101607.16;;;8.05;57.43
74627;BME280;63132;52.268;5.192;2023-04-25T13:01:00;101613.72;;;7.98;56.97
74627;BME280;63132;52.268;5.192;2023-04-25T13:03:26;101624.84;;;7.88;57.03
74627;BME280;63132;52.268;5.192;2023-04-25T13:05:51;101620.97;;;7.78;56.61
74627;BME280;63132;52.268;5.192;2023-04-25T13:08:20;101619.09;;;7.30;55.24